Time;durP1;ratioP1;P1;durP2;ratioP2;P2;SDS_P1;SDS_P2;PMS_P1;PMS_P2;Temp;Humidity;BMP_temperature;BMP_pressure;BME280_temperature;BME280_humidity;BME280_pressure;Samples;Min_cycle;Max_cycle;Signal;HPM_P1;HPM_P2
2021/08/23 00:01:02;;;;;;;10.60;8.25;;;;;;;;;;5089415;28;20441;-78
2021/08/23 00:03:29;;;;;;;13.65;8.60;;;;;;;;;;5086517;28;20051;-76
2021/08/23 00:05:55;;;;;;;12.48;8.45;;;;;;;;;;5088445;28;20040;-76
2021/08/23 00:08:22;;;;;;;13.90;8.00;;;;;;;;;;5085947;28;20048;-76
2021/08/23 00:10:49;;;;;;;13.18;8.48;;;;;;;;;;5089182;28;20395;-77
2021/08/23 00:13:15;;;;;;;10.68;7.20;;;;;;;;;;5086258;28;20093;-77
2021/08/23 00:15:41;;;;;;;14.48;7.53;;;;;;;;;;5089684;28;20375;-77
2021/08/23 00:18:07;;;;;;;14.45;7.40;;;;;;;;;;5089779;28;20115;-77
2021/08/23 00:20:43;;;;;;;13.75;7.85;;;;;;;;;;5088219;28;20134;-77
2021/08/23 00:23:11;;;;;;;15.32;7.85;;;;;;;;;;5086859;28;20032;-76
2021/08/23 00:25:37;;;;;;;11.77;8.32;;;;;;;;;;5087055;28;20044;-76
2021/08/23 00:28:04;;;;;;;14.88;7.57;;;;;;;;;;5101417;28;20036;-76
2021/08/23 00:30:30;;;;;;;12.82;7.53;;;;;;;;;;5088527;28;20064;-77
2021/08/23 00:32:56;;;;;;;13.70;7.60;;;;;;;;;;5089001;28;20122;-75
2021/08/23 00:35:22;;;;;;;13.68;8.23;;;;;;;;;;5084470;28;20072;-76
2021/08/23 00:37:50;;;;;;;13.57;8.63;;;;;;;;;;5089750;28;20590;-76
2021/08/23 00:40:16;;;;;;;11.35;7.93;;;;;;;;;;5101022;28;20063;-76
2021/08/23 00:42:43;;;;;;;14.45;8.68;;;;;;;;;;5091804;28;20048;-77
2021/08/23 00:45:09;;;;;;;15.65;8.35;;;;;;;;;;5092789;28;20059;-77
2021/08/23 00:47:35;;;;;;;14.95;9.60;;;;;;;;;;5092219;28;20498;-77
2021/08/23 00:50:04;;;;;;;14.07;9.85;;;;;;;;;;5090537;28;20052;-76
2021/08/23 00:52:31;;;;;;;16.95;9.02;;;;;;;;;;5090877;28;20426;-76
2021/08/23 00:54:57;;;;;;;11.68;8.23;;;;;;;;;;5091672;28;20032;-75
2021/08/23 00:57:23;;;;;;;10.18;8.20;;;;;;;;;;5092189;28;20048;-75
2021/08/23 00:59:52;;;;;;;14.60;7.93;;;;;;;;;;5091652;28;20407;-78
2021/08/23 01:02:27;;;;;;;14.50;6.95;;;;;;;;;;5090261;28;20544;-77
2021/08/23 01:04:56;;;;;;;7.80;6.40;;;;;;;;;;5092230;28;20091;-77
2021/08/23 01:07:26;;;;;;;11.70;6.80;;;;;;;;;;5086458;28;20063;-77
2021/08/23 01:09:56;;;;;;;15.02;6.45;;;;;;;;;;5092063;28;20046;-77
2021/08/23 01:12:24;;;;;;;10.40;5.72;;;;;;;;;;5091800;28;20044;-77
2021/08/23 01:14:50;;;;;;;11.90;6.50;;;;;;;;;;5093163;28;20036;-78
2021/08/23 01:17:16;;;;;;;9.63;6.00;;;;;;;;;;5091363;28;20495;-77
2021/08/23 01:19:45;;;;;;;10.95;6.15;;;;;;;;;;5089817;28;20047;-77
2021/08/23 01:22:12;;;;;;;11.80;5.68;;;;;;;;;;5091145;28;20075;-77
2021/08/23 01:24:39;;;;;;;12.18;6.20;;;;;;;;;;5091841;28;20036;-76
2021/08/23 01:27:07;;;;;;;12.25;5.97;;;;;;;;;;5090557;28;20041;-76
2021/08/23 01:29:47;;;;;;;11.90;5.95;;;;;;;;;;5092492;28;20065;-77
2021/08/23 01:32:16;;;;;;;8.45;5.45;;;;;;;;;;5123470;27;20048;-76
2021/08/23 01:34:43;;;;;;;10.48;6.03;;;;;;;;;;5091338;28;20444;-76
2021/08/23 01:37:11;;;;;;;13.63;5.25;;;;;;;;;;5093115;28;20052;-76
2021/08/23 01:39:39;;;;;;;9.80;6.22;;;;;;;;;;5088155;28;20052;-76
2021/08/23 01:42:07;;;;;;;13.75;5.03;;;;;;;;;;5086322;28;20041;-77
2021/08/23 01:44:33;;;;;;;14.75;5.28;;;;;;;;;;5089379;28;20052;-77
2021/08/23 01:46:59;;;;;;;9.07;4.68;;;;;;;;;;5090647;28;20163;-76
2021/08/23 01:49:25;;;;;;;10.00;5.03;;;;;;;;;;5088634;28;20035;-76
2021/08/23 01:51:52;;;;;;;8.73;5.50;;;;;;;;;;5089532;28;20051;-77
2021/08/23 01:54:18;;;;;;;10.40;5.28;;;;;;;;;;5090643;28;20483;-76
2021/08/23 01:56:44;;;;;;;9.82;5.68;;;;;;;;;;5090199;28;20098;-78
2021/08/23 01:59:11;;;;;;;11.43;5.57;;;;;;;;;;5087604;28;20079;-76
2021/08/23 02:01:37;;;;;;;12.70;5.45;;;;;;;;;;5089558;28;20040;-77
2021/08/23 02:04:03;;;;;;;12.10;5.72;;;;;;;;;;5089730;28;20040;-76
2021/08/23 02:06:30;;;;;;;10.15;5.97;;;;;;;;;;5088636;28;20047;-76
2021/08/23 02:08:56;;;;;;;12.43;5.75;;;;;;;;;;5090196;28;20070;-77
2021/08/23 02:11:25;;;;;;;10.88;5.65;;;;;;;;;;5090318;28;20436;-77
2021/08/23 02:13:52;;;;;;;11.82;5.78;;;;;;;;;;5091055;28;20044;-78
2021/08/23 02:16:19;;;;;;;9.05;5.43;;;;;;;;;;5088762;28;20040;-78
2021/08/23 02:18:45;;;;;;;9.65;6.13;;;;;;;;;;5089325;28;20040;-77
2021/08/23 02:21:12;;;;;;;13.05;6.00;;;;;;;;;;5089503;28;20048;-76
2021/08/23 02:23:38;;;;;;;13.95;6.47;;;;;;;;;;5091301;28;20040;-77
2021/08/23 02:26:04;;;;;;;10.05;4.95;;;;;;;;;;5089892;28;20136;-76
2021/08/23 02:28:31;;;;;;;11.43;6.13;;;;;;;;;;5089020;28;20135;-77
2021/08/23 02:30:57;;;;;;;8.95;5.65;;;;;;;;;;5089381;28;20544;-78
2021/08/23 02:33:23;;;;;;;8.70;5.22;;;;;;;;;;5089894;28;20044;-77
2021/08/23 02:35:49;;;;;;;11.43;5.28;;;;;;;;;;5090328;28;20070;-77
2021/08/23 02:38:15;;;;;;;14.80;6.22;;;;;;;;;;5089254;28;20032;-77
2021/08/23 02:40:41;;;;;;;12.30;6.53;;;;;;;;;;5051907;28;1095323;-78
2021/08/23 02:43:08;;;;;;;7.95;5.78;;;;;;;;;;5091007;28;20044;-75
2021/08/23 02:45:34;;;;;;;12.77;5.10;;;;;;;;;;5090370;28;20051;-77
2021/08/23 02:48:00;;;;;;;12.57;5.20;;;;;;;;;;5088890;28;20042;-75
2021/08/23 02:50:26;;;;;;;9.10;4.97;;;;;;;;;;5090655;28;20119;-77
2021/08/23 02:52:52;;;;;;;8.68;4.63;;;;;;;;;;5087778;28;20051;-77
2021/08/23 02:55:19;;;;;;;13.35;4.93;;;;;;;;;;5088430;28;20494;-76
2021/08/23 02:57:45;;;;;;;13.35;5.18;;;;;;;;;;5089539;28;20086;-75
2021/08/23 03:00:12;;;;;;;9.55;4.97;;;;;;;;;;5088875;28;20194;-77
2021/08/23 03:02:38;;;;;;;8.48;4.80;;;;;;;;;;5090686;28;20094;-78
2021/08/23 03:05:04;;;;;;;12.27;4.32;;;;;;;;;;5089028;28;20046;-76
2021/08/23 03:07:31;;;;;;;11.70;4.25;;;;;;;;;;5090679;28;20284;-77
2021/08/23 03:09:57;;;;;;;11.45;4.60;;;;;;;;;;5090537;28;20586;-76
2021/08/23 03:12:23;;;;;;;7.22;4.18;;;;;;;;;;5088948;28;20074;-79
2021/08/23 03:14:49;;;;;;;8.70;4.78;;;;;;;;;;5090811;28;20476;-78
2021/08/23 03:17:15;;;;;;;10.68;4.88;;;;;;;;;;5090320;28;20036;-78
2021/08/23 03:19:42;;;;;;;9.93;4.80;;;;;;;;;;5088373;28;20036;-78
2021/08/23 03:22:08;;;;;;;8.18;3.60;;;;;;;;;;5089133;28;20056;-78
2021/08/23 03:24:34;;;;;;;9.07;3.72;;;;;;;;;;5087083;28;20071;-79
2021/08/23 03:27:00;;;;;;;10.07;3.85;;;;;;;;;;5087614;28;20036;-79
2021/08/23 03:29:26;;;;;;;8.90;4.05;;;;;;;;;;5088699;28;20044;-79
2021/08/23 03:31:52;;;;;;;11.55;3.95;;;;;;;;;;5089811;28;20075;-78
2021/08/23 03:34:19;;;;;;;7.97;3.72;;;;;;;;;;5087937;28;20044;-79
2021/08/23 03:36:45;;;;;;;7.70;3.30;;;;;;;;;;5086379;28;20040;-77
2021/08/23 03:39:13;;;;;;;10.65;3.53;;;;;;;;;;5103067;27;20113;-79
2021/08/23 03:41:39;;;;;;;7.78;3.75;;;;;;;;;;5089076;28;20391;-78
2021/08/23 03:44:05;;;;;;;8.82;4.25;;;;;;;;;;5086562;28;20043;-79
2021/08/23 03:46:34;;;;;;;9.10;3.55;;;;;;;;;;5088473;28;20074;-78
2021/08/23 03:49:04;;;;;;;5.60;3.35;;;;;;;;;;5087143;28;20119;-78
2021/08/23 03:51:30;;;;;;;9.07;4.00;;;;;;;;;;5087889;28;20044;-79
2021/08/23 03:53:56;;;;;;;10.00;3.70;;;;;;;;;;5090137;28;20487;-79
2021/08/23 03:56:23;;;;;;;11.18;4.13;;;;;;;;;;5086516;28;20054;-78
2021/08/23 03:58:50;;;;;;;10.32;4.20;;;;;;;;;;5090575;28;20075;-79
2021/08/23 04:01:17;;;;;;;14.48;3.90;;;;;;;;;;5088842;28;20456;-79
2021/08/23 04:03:43;;;;;;;8.65;3.88;;;;;;;;;;5087079;28;20115;-77
2021/08/23 04:06:12;;;;;;;9.43;4.03;;;;;;;;;;5087456;28;20040;-79
2021/08/23 04:08:39;;;;;;;9.60;3.90;;;;;;;;;;5084408;28;20051;-78
2021/08/23 04:11:05;;;;;;;9.57;3.65;;;;;;;;;;5089788;28;20028;-79
2021/08/23 04:13:31;;;;;;;8.18;3.53;;;;;;;;;;5088552;28;20376;-78
2021/08/23 04:16:00;;;;;;;9.00;3.60;;;;;;;;;;5088913;28;20067;-79
2021/08/23 04:18:26;;;;;;;7.78;4.05;;;;;;;;;;5087249;28;20044;-79
2021/08/23 04:20:52;;;;;;;8.77;3.95;;;;;;;;;;5087540;28;20048;-79
2021/08/23 04:23:19;;;;;;;10.98;3.80;;;;;;;;;;5085361;28;20039;-78
2021/08/23 04:25:45;;;;;;;7.47;4.18;;;;;;;;;;5088679;28;20035;-79
2021/08/23 04:28:11;;;;;;;12.07;3.78;;;;;;;;;;5089848;28;20052;-78
2021/08/23 04:30:37;;;;;;;7.90;3.95;;;;;;;;;;5087173;28;20036;-78
2021/08/23 04:33:03;;;;;;;9.13;4.13;;;;;;;;;;5087377;28;20163;-78
2021/08/23 04:35:29;;;;;;;10.60;3.85;;;;;;;;;;5087681;28;20084;-79
2021/08/23 04:37:55;;;;;;;11.00;3.65;;;;;;;;;;5105397;28;20040;-79
2021/08/23 04:40:22;;;;;;;11.50;4.47;;;;;;;;;;5086856;28;20083;-78
2021/08/23 04:42:48;;;;;;;7.22;3.53;;;;;;;;;;5088195;28;20055;-76
2021/08/23 04:45:14;;;;;;;10.00;3.63;;;;;;;;;;5090512;28;20048;-77
2021/08/23 04:47:40;;;;;;;12.00;3.90;;;;;;;;;;5086503;28;20045;-78
2021/08/23 04:50:07;;;;;;;8.07;3.67;;;;;;;;;;5082582;28;20487;-78
2021/08/23 04:52:33;;;;;;;10.93;3.78;;;;;;;;;;5087036;28;20138;-84
2021/08/23 04:55:02;;;;;;;8.63;3.95;;;;;;;;;;5082855;28;20036;-82
2021/08/23 04:57:29;;;;;;;7.88;3.78;;;;;;;;;;5085319;28;20048;-80
2021/08/23 04:59:55;;;;;;;11.93;3.80;;;;;;;;;;5088481;28;20040;-81
2021/08/23 05:02:21;;;;;;;6.05;3.63;;;;;;;;;;5085747;28;20075;-76
2021/08/23 05:04:47;;;;;;;5.22;3.17;;;;;;;;;;5088351;28;20032;-80
2021/08/23 05:07:14;;;;;;;8.73;3.45;;;;;;;;;;5090582;28;20483;-80
2021/08/23 05:09:40;;;;;;;11.40;4.38;;;;;;;;;;5090284;28;20158;-80
2021/08/23 05:12:06;;;;;;;12.45;4.38;;;;;;;;;;5087025;28;20078;-82
2021/08/23 05:14:32;;;;;;;9.82;3.47;;;;;;;;;;5118787;27;20483;-80
2021/08/23 05:16:58;;;;;;;7.75;3.63;;;;;;;;;;5087590;28;20368;-80
2021/08/23 05:19:24;;;;;;;9.50;3.60;;;;;;;;;;5087416;28;20531;-81
2021/08/23 05:21:51;;;;;;;8.80;3.05;;;;;;;;;;5089920;28;20139;-83
2021/08/23 05:24:17;;;;;;;10.35;3.85;;;;;;;;;;5080465;28;20043;-80
2021/08/23 05:26:43;;;;;;;8.95;3.60;;;;;;;;;;5084386;28;20556;-86
2021/08/23 05:29:09;;;;;;;10.45;3.30;;;;;;;;;;5093376;28;20115;-81
2021/08/23 05:31:35;;;;;;;10.27;3.50;;;;;;;;;;5089974;28;20111;-82
2021/08/23 05:34:02;;;;;;;10.35;3.60;;;;;;;;;;5075248;28;20072;-82
2021/08/23 05:36:28;;;;;;;7.60;3.30;;;;;;;;;;5077812;28;20142;-81
2021/08/23 05:38:54;;;;;;;10.52;3.42;;;;;;;;;;5074993;28;20115;-81
2021/08/23 05:41:20;;;;;;;10.13;3.67;;;;;;;;;;5092377;28;20048;-78
2021/08/23 05:43:47;;;;;;;8.98;3.20;;;;;;;;;;5075678;28;20496;-79
2021/08/23 05:46:15;;;;;;;15.40;4.63;;;;;;;;;;5084634;28;20604;-81
2021/08/23 05:48:42;;;;;;;7.53;3.80;;;;;;;;;;5100908;27;20048;-81
2021/08/23 05:51:13;;;;;;;9.57;3.13;;;;;;;;;;5085808;28;20036;-84
2021/08/23 05:53:40;;;;;;;8.95;3.22;;;;;;;;;;5092243;28;20045;-78
2021/08/23 05:56:06;;;;;;;10.15;3.65;;;;;;;;;;5081887;28;20396;-78
2021/08/23 05:58:32;;;;;;;10.23;3.08;;;;;;;;;;5074194;28;20045;-77
2021/08/23 06:00:58;;;;;;;8.60;3.28;;;;;;;;;;5085212;28;20502;-78
2021/08/23 06:03:25;;;;;;;7.57;3.58;;;;;;;;;;5074946;28;20075;-79
2021/08/23 06:05:51;;;;;;;7.40;2.70;;;;;;;;;;5096157;27;20445;-78
2021/08/23 06:08:17;;;;;;;8.07;2.88;;;;;;;;;;5092463;28;20472;-79
2021/08/23 06:10:46;;;;;;;8.88;3.22;;;;;;;;;;5090475;28;20071;-78
2021/08/23 06:13:12;;;;;;;8.07;3.00;;;;;;;;;;5083255;28;20036;-80
2021/08/23 06:15:38;;;;;;;11.82;3.38;;;;;;;;;;5089733;28;20403;-81
2021/08/23 06:18:04;;;;;;;7.53;2.97;;;;;;;;;;5083144;28;20062;-81
2021/08/23 06:20:30;;;;;;;9.15;3.28;;;;;;;;;;5090934;28;21393;-79
2021/08/23 06:22:57;;;;;;;7.57;3.08;;;;;;;;;;5086071;28;20257;-78
2021/08/23 06:25:23;;;;;;;7.15;2.60;;;;;;;;;;5113886;27;20040;-87
2021/08/23 06:27:49;;;;;;;6.70;2.72;;;;;;;;;;5089869;28;20538;-79
2021/08/23 06:30:16;;;;;;;5.93;2.60;;;;;;;;;;5101683;27;20051;-79
2021/08/23 06:32:42;;;;;;;6.85;2.80;;;;;;;;;;5088011;28;20399;-76
2021/08/23 06:35:08;;;;;;;6.45;2.95;;;;;;;;;;5087432;28;20481;-78
2021/08/23 06:37:36;;;;;;;5.78;2.53;;;;;;;;;;5102298;27;20396;-77
2021/08/23 06:40:07;;;;;;;6.38;3.25;;;;;;;;;;5105127;27;20056;-81
2021/08/23 06:42:34;;;;;;;7.78;2.72;;;;;;;;;;5086856;28;20039;-80
2021/08/23 06:45:01;;;;;;;9.10;2.60;;;;;;;;;;5087181;28;20032;-80
2021/08/23 06:47:27;;;;;;;4.95;2.40;;;;;;;;;;5099107;28;20127;-79
2021/08/23 06:49:53;;;;;;;5.93;2.83;;;;;;;;;;5097598;28;20055;-79
2021/08/23 06:52:21;;;;;;;9.18;2.67;;;;;;;;;;5119894;27;20524;-79
2021/08/23 06:54:47;;;;;;;5.75;2.90;;;;;;;;;;5085518;28;20035;-77
2021/08/23 06:57:13;;;;;;;7.93;2.85;;;;;;;;;;5091150;28;20044;-77
2021/08/23 06:59:40;;;;;;;5.57;2.30;;;;;;;;;;5089613;28;20044;-81
2021/08/23 07:02:06;;;;;;;7.80;2.80;;;;;;;;;;5092672;27;20036;-77
2021/08/23 07:04:32;;;;;;;6.55;3.15;;;;;;;;;;5085102;28;20051;-78
2021/08/23 07:07:01;;;;;;;7.35;2.65;;;;;;;;;;5088003;28;20036;-76
2021/08/23 07:09:28;;;;;;;7.43;3.08;;;;;;;;;;5083810;28;20044;-75
2021/08/23 07:11:54;;;;;;;9.25;3.40;;;;;;;;;;5083914;28;20114;-75
2021/08/23 07:14:20;;;;;;;10.20;3.10;;;;;;;;;;5090539;28;20055;-75
2021/08/23 07:16:47;;;;;;;6.15;2.78;;;;;;;;;;5086308;28;20390;-76
2021/08/23 07:19:13;;;;;;;6.22;2.28;;;;;;;;;;5098004;28;20095;-75
2021/08/23 07:21:39;;;;;;;5.47;2.60;;;;;;;;;;5085502;28;20392;-75
2021/08/23 07:24:09;;;;;;;6.72;2.22;;;;;;;;;;5089265;28;20144;-75
2021/08/23 07:26:49;;;;;;;5.97;2.15;;;;;;;;;;5087677;28;20048;-81
2021/08/23 07:29:17;;;;;;;3.63;2.05;;;;;;;;;;5084412;28;20043;-81
2021/08/23 07:31:43;;;;;;;4.35;2.00;;;;;;;;;;5099781;28;20097;-79
2021/08/23 07:34:10;;;;;;;5.88;2.00;;;;;;;;;;5088060;28;20419;-79
2021/08/23 07:36:51;;;;;;;6.13;1.65;;;;;;;;;;5087031;28;20091;-79
2021/08/23 07:39:17;;;;;;;4.35;1.80;;;;;;;;;;5089094;28;20048;-76
2021/08/23 07:41:44;;;;;;;6.28;1.50;;;;;;;;;;5088653;28;20036;-77
2021/08/23 07:44:10;;;;;;;2.08;1.38;;;;;;;;;;5089104;28;20101;-81
2021/08/23 07:46:36;;;;;;;3.08;1.33;;;;;;;;;;5089954;28;20036;-78
2021/08/23 07:49:04;;;;;;;4.30;1.58;;;;;;;;;;5105580;28;20482;-79
2021/08/23 07:51:30;;;;;;;;;;;;;;;;;;5090066;28;20380;-80
2021/08/23 07:53:56;;;;;;;3.70;1.50;;;;;;;;;;5088004;28;20275;-80
2021/08/23 07:56:23;;;;;;;4.85;1.65;;;;;;;;;;5088015;28;20419;-80
2021/08/23 07:58:49;;;;;;;5.75;1.50;;;;;;;;;;5084525;28;20127;-75
2021/08/23 08:01:16;;;;;;;4.95;1.77;;;;;;;;;;5089350;28;20040;-76
2021/08/23 08:03:42;;;;;;;3.70;1.70;;;;;;;;;;5083230;28;20043;-76
2021/08/23 08:06:09;;;;;;;3.03;1.50;;;;;;;;;;5086365;28;20032;-76
2021/08/23 08:08:35;;;;;;;5.82;1.85;;;;;;;;;;5090674;28;20101;-76
2021/08/23 08:11:01;;;;;;;3.83;1.40;;;;;;;;;;5084420;28;20056;-79
2021/08/23 08:13:27;;;;;;;5.32;1.67;;;;;;;;;;5075810;28;20036;-78
2021/08/23 08:15:53;;;;;;;3.80;1.50;;;;;;;;;;5086605;28;20050;-82
2021/08/23 08:18:20;;;;;;;4.47;1.70;;;;;;;;;;5087334;28;20059;-84
2021/08/23 08:20:46;;;;;;;3.55;1.50;;;;;;;;;;5089247;28;20390;-83
2021/08/23 08:23:13;;;;;;;7.35;1.85;;;;;;;;;;5075149;28;20075;-77
2021/08/23 08:25:39;;;;;;;2.53;1.65;;;;;;;;;;5084936;28;20074;-76
2021/08/23 08:28:06;;;;;;;3.97;1.98;;;;;;;;;;5084690;28;20048;-78
2021/08/23 08:30:32;;;;;;;5.25;1.67;;;;;;;;;;5089224;28;20527;-78
2021/08/23 08:32:58;;;;;;;8.00;2.00;;;;;;;;;;5086955;28;20044;-76
2021/08/23 08:35:24;;;;;;;5.53;2.00;;;;;;;;;;5077396;28;20438;-76
2021/08/23 08:37:52;;;;;;;3.97;1.50;;;;;;;;;;5088469;28;20097;-77
2021/08/23 08:40:19;;;;;;;3.80;1.73;;;;;;;;;;5085221;28;20083;-77
2021/08/23 08:42:46;;;;;;;3.80;1.70;;;;;;;;;;5088297;28;20036;-76
2021/08/23 08:45:13;;;;;;;4.28;1.85;;;;;;;;;;5082948;28;20064;-78
2021/08/23 08:47:43;;;;;;;3.35;1.95;;;;;;;;;;5080515;28;20047;-78
2021/08/23 08:50:10;;;;;;;2.97;1.60;;;;;;;;;;5100812;28;20044;-80
2021/08/23 08:52:38;;;;;;;6.25;1.90;;;;;;;;;;5122283;27;20048;-81
2021/08/23 08:55:08;;;;;;;3.95;1.50;;;;;;;;;;5117570;27;20051;-80
2021/08/23 08:57:34;;;;;;;2.92;1.42;;;;;;;;;;5087146;28;20371;-82
2021/08/23 09:00:00;;;;;;;5.28;1.63;;;;;;;;;;5085893;28;20527;-77
2021/08/23 09:02:27;;;;;;;4.53;1.50;;;;;;;;;;5083756;28;20048;-76
2021/08/23 09:04:54;;;;;;;2.65;1.30;;;;;;;;;;5087111;28;20044;-79
2021/08/23 09:07:21;;;;;;;3.08;1.50;;;;;;;;;;5093049;28;20047;-78
2021/08/23 09:09:47;;;;;;;6.13;1.98;;;;;;;;;;5118574;27;20218;-76
2021/08/23 09:12:16;;;;;;;2.10;1.48;;;;;;;;;;5083663;28;20044;-79
2021/08/23 09:14:52;;;;;;;3.03;1.48;;;;;;;;;;5087749;28;20417;-77
2021/08/23 09:17:22;;;;;;;2.67;1.40;;;;;;;;;;5087044;28;20782;-77
2021/08/23 09:19:56;;;;;;;3.47;1.40;;;;;;;;;;5095580;28;20088;-84
2021/08/23 09:22:24;;;;;;;3.00;1.35;;;;;;;;;;5085174;28;20047;-86
2021/08/23 09:24:51;;;;;;;3.67;1.17;;;;;;;;;;5113737;27;20040;-84
2021/08/23 09:27:36;;;;;;;4.05;1.05;;;;;;;;;;5090220;28;20529;-84
2021/08/23 09:30:21;;;;;;;1.98;1.30;;;;;;;;;;5099114;28;20059;-86
2021/08/23 09:33:07;;;;;;;3.67;1.15;;;;;;;;;;5080541;28;20460;-83
2021/08/23 09:35:53;;;;;;;;;;;;;;;;;;5099058;28;20427;-84
2021/08/23 09:38:29;;;;;;;;;;;;;;;;;;5086994;28;19966;-80
2021/08/23 09:40:56;;;;;;;;;;;;;;;;;;5090061;28;19934;-76
2021/08/23 09:43:23;;;;;;;;;;;;;;;;;;5084905;28;19973;-77
2021/08/23 09:45:49;;;;;;;;;;;;;;;;;;5090657;28;19915;-78
2021/08/23 09:48:17;;;;;;;;;;;;;;;;;;5084418;28;20145;-76
2021/08/23 09:50:43;;;;;;;;;;;;;;;;;;5082745;28;19973;-76
2021/08/23 09:53:10;;;;;;;;;;;;;;;;;;5083752;28;20020;-76
2021/08/23 09:55:37;;;;;;;;;;;;;;;;;;5102476;27;19916;-79
2021/08/23 09:58:03;;;;;;;6.05;1.30;;;;;;;;;;5106963;27;19927;-78
2021/08/23 10:00:30;;;;;;;2.92;0.95;;;;;;;;;;5090982;28;20043;-77
2021/08/23 10:02:59;;;;;;;2.67;1.15;;;;;;;;;;5089473;28;20052;-77
2021/08/23 10:05:26;;;;;;;3.90;1.08;;;;;;;;;;5091019;28;20035;-79
2021/08/23 10:07:52;;;;;;;2.35;1.27;;;;;;;;;;5115989;27;20044;-77
2021/08/23 10:10:19;;;;;;;3.60;1.20;;;;;;;;;;5099856;27;20059;-78
2021/08/23 10:12:47;;;;;;;4.53;1.40;;;;;;;;;;5085650;28;20039;-77
2021/08/23 10:15:14;;;;;;;3.60;1.20;;;;;;;;;;5090709;28;20040;-78
2021/08/23 10:17:40;;;;;;;5.78;1.42;;;;;;;;;;5119123;27;20035;-78
2021/08/23 10:20:08;;;;;;;3.42;1.20;;;;;;;;;;5091549;28;20388;-78
2021/08/23 10:22:35;;;;;;;2.22;1.30;;;;;;;;;;5085911;28;20032;-87
2021/08/23 10:25:02;;;;;;;2.22;1.15;;;;;;;;;;5099265;28;20065;-85
2021/08/23 10:27:32;;;;;;;2.20;0.90;;;;;;;;;;5124039;27;20058;-82
2021/08/23 10:29:58;;;;;;;1.95;1.10;;;;;;;;;;5118427;27;20039;-76
2021/08/23 10:32:33;;;;;;;1.77;1.05;;;;;;;;;;5118442;27;20046;-78
2021/08/23 10:35:15;;;;;;;2.45;1.10;;;;;;;;;;5086945;28;20409;-79
2021/08/23 10:37:43;;;;;;;3.05;1.27;;;;;;;;;;5119609;27;20483;-76
2021/08/23 10:40:10;;;;;;;3.90;1.50;;;;;;;;;;5083363;28;20469;-77
2021/08/23 10:42:38;;;;;;;2.80;1.10;;;;;;;;;;5076802;28;20040;-77
2021/08/23 10:45:11;;;;;;;1.92;1.02;;;;;;;;;;5081137;28;20545;-78
2021/08/23 10:47:37;;;;;;;5.18;1.48;;;;;;;;;;5080639;28;20035;-76
2021/08/23 10:50:05;;;;;;;6.97;1.50;;;;;;;;;;5087285;28;20044;-76
2021/08/23 10:52:35;;;;;;;4.07;1.00;;;;;;;;;;5106725;28;20036;-76
2021/08/23 10:55:01;;;;;;;2.90;1.10;;;;;;;;;;5119492;27;20116;-77
2021/08/23 10:57:27;;;;;;;4.65;1.90;;;;;;;;;;5088946;28;20032;-77
2021/08/23 10:59:55;;;;;;;2.53;1.65;;;;;;;;;;5087350;28;20052;-76
2021/08/23 11:02:21;;;;;;;3.92;1.70;;;;;;;;;;5080092;28;20079;-75
2021/08/23 11:05:09;;;;;;;4.10;1.45;;;;;;;;;;5084855;28;20376;-75
2021/08/23 11:10:09;;;;;;;3.42;1.67;;;;;;;;;;5109823;27;20362;-78
2021/08/23 11:12:41;;;;;;;4.72;1.60;;;;;;;;;;5098469;28;20127;-76
2021/08/23 11:15:14;;;;;;;4.03;1.58;;;;;;;;;;5097079;28;20067;-77
2021/08/23 11:17:44;;;;;;;3.17;1.63;;;;;;;;;;5096803;28;20082;-76
2021/08/23 11:20:10;;;;;;;4.40;1.60;;;;;;;;;;5096757;28;20075;-77
2021/08/23 11:22:37;;;;;;;6.65;1.70;;;;;;;;;;5097834;28;20046;-77
2021/08/23 11:25:05;;;;;;;3.20;1.40;;;;;;;;;;5094976;28;20043;-76
2021/08/23 11:27:31;;;;;;;2.67;1.40;;;;;;;;;;5095900;28;20471;-76
2021/08/23 11:29:58;;;;;;;2.72;1.52;;;;;;;;;;5100291;28;20047;-76
2021/08/23 11:32:28;;;;;;;1.90;1.23;;;;;;;;;;5098490;28;20540;-75
2021/08/23 11:34:56;;;;;;;3.25;1.48;;;;;;;;;;5094571;28;20899;-76
2021/08/23 11:37:24;;;;;;;2.58;1.27;;;;;;;;;;5095820;28;20445;-77
2021/08/23 11:40:01;;;;;;;2.33;1.20;;;;;;;;;;5096381;28;20048;-76
2021/08/23 11:42:27;;;;;;;5.10;1.40;;;;;;;;;;5095977;28;20035;-76
2021/08/23 11:44:54;;;;;;;5.72;1.45;;;;;;;;;;5086774;28;20147;-77
2021/08/23 11:47:28;;;;;;;4.32;1.30;;;;;;;;;;5083019;28;20051;-76
2021/08/23 11:49:55;;;;;;;4.03;1.30;;;;;;;;;;5088903;28;20040;-77
2021/08/23 11:52:22;;;;;;;3.33;1.60;;;;;;;;;;5090029;28;20483;-78
2021/08/23 11:54:49;;;;;;;3.03;1.40;;;;;;;;;;5109563;27;20054;-76
2021/08/23 11:57:19;;;;;;;2.47;1.23;;;;;;;;;;5093555;28;20071;-76
2021/08/23 12:00:11;;;;;;;6.38;1.38;;;;;;;;;;5094824;28;20040;-76
2021/08/23 12:02:38;;;;;;;4.00;1.02;;;;;;;;;;5091425;28;20499;-76
2021/08/23 12:05:07;;;;;;;4.10;1.20;;;;;;;;;;5098782;28;20043;-76
2021/08/23 12:07:47;;;;;;;3.38;1.58;;;;;;;;;;5093747;28;20393;-76
2021/08/23 12:10:26;;;;;;;4.95;1.30;;;;;;;;;;5092787;28;20735;-76
2021/08/23 12:13:13;;;;;;;5.68;1.25;;;;;;;;;;5099917;28;20100;-76
2021/08/23 12:15:53;;;;;;;4.63;1.40;;;;;;;;;;5095535;28;20047;-76
2021/08/23 12:18:20;;;;;;;4.53;1.48;;;;;;;;;;5093935;28;20051;-76
2021/08/23 12:21:05;;;;;;;6.22;1.65;;;;;;;;;;5085673;28;20375;-76
2021/08/23 12:23:42;;;;;;;6.20;1.50;;;;;;;;;;5080866;28;20039;-76
2021/08/23 12:26:09;;;;;;;5.03;1.55;;;;;;;;;;5084785;28;20040;-76
2021/08/23 12:28:35;;;;;;;3.28;1.40;;;;;;;;;;5083748;28;20076;-76
2021/08/23 12:31:06;;;;;;;3.17;1.13;;;;;;;;;;5080065;28;20386;-78
2021/08/23 12:33:33;;;;;;;3.50;1.33;;;;;;;;;;5081011;28;20411;-78
2021/08/23 12:35:59;;;;;;;4.00;1.92;;;;;;;;;;5115634;27;20223;-80
2021/08/23 12:38:25;;;;;;;2.40;1.40;;;;;;;;;;5071063;28;20048;-78
2021/08/23 12:40:51;;;;;;;3.85;1.00;;;;;;;;;;5084887;28;20044;-78
2021/08/23 12:43:17;;;;;;;3.67;1.70;;;;;;;;;;5083967;28;20052;-75
2021/08/23 12:45:44;;;;;;;2.35;1.50;;;;;;;;;;5081359;28;20055;-75
2021/08/23 12:48:10;;;;;;;4.20;1.50;;;;;;;;;;5081444;28;20044;-76
2021/08/23 12:50:36;;;;;;;5.45;1.60;;;;;;;;;;5082159;28;20105;-75
2021/08/23 12:53:02;;;;;;;3.90;1.40;;;;;;;;;;5084812;28;20036;-75
2021/08/23 12:55:28;;;;;;;3.17;1.30;;;;;;;;;;5082128;28;20552;-76
2021/08/23 12:57:54;;;;;;;2.90;1.30;;;;;;;;;;5115188;27;20383;-76
2021/08/23 13:00:20;;;;;;;6.78;1.60;;;;;;;;;;5072063;28;20376;-75
2021/08/23 13:02:47;;;;;;;3.92;1.20;;;;;;;;;;5081752;28;20567;-75
2021/08/23 13:05:13;;;;;;;4.38;1.45;;;;;;;;;;5102488;28;20058;-76
2021/08/23 13:07:39;;;;;;;5.60;1.70;;;;;;;;;;5080449;28;20070;-75
2021/08/23 13:10:07;;;;;;;5.50;1.38;;;;;;;;;;5097899;28;20048;-75
2021/08/23 13:12:33;;;;;;;2.88;1.35;;;;;;;;;;5084030;28;20048;-75
2021/08/23 13:14:59;;;;;;;5.00;1.20;;;;;;;;;;5082072;28;20052;-75
2021/08/23 13:17:25;;;;;;;3.72;1.50;;;;;;;;;;5058773;28;20048;-76
2021/08/23 13:19:51;;;;;;;2.30;1.38;;;;;;;;;;5088592;28;20491;-80
2021/08/23 13:22:18;;;;;;;5.35;1.67;;;;;;;;;;5082788;28;20182;-76
2021/08/23 13:24:44;;;;;;;3.42;1.30;;;;;;;;;;5082322;28;20122;-76
2021/08/23 13:27:10;;;;;;;3.70;1.33;;;;;;;;;;5082113;28;20047;-77
2021/08/23 13:29:36;;;;;;;1.98;1.08;;;;;;;;;;5111225;27;20051;-77
2021/08/23 13:32:02;;;;;;;6.50;1.17;;;;;;;;;;5081881;28;20055;-75
2021/08/23 13:34:29;;;;;;;3.40;1.20;;;;;;;;;;5081894;28;20097;-74
2021/08/23 13:36:55;;;;;;;3.35;1.17;;;;;;;;;;5089110;28;20059;-76
2021/08/23 13:39:21;;;;;;;4.70;1.30;;;;;;;;;;5078581;28;20044;-80
2021/08/23 13:41:50;;;;;;;3.08;1.40;;;;;;;;;;5114856;27;20047;-80
2021/08/23 13:44:16;;;;;;;2.53;1.30;;;;;;;;;;5076758;28;20128;-78
2021/08/23 13:46:42;;;;;;;2.22;1.00;;;;;;;;;;5079923;28;20070;-79
2021/08/23 13:49:08;;;;;;;2.88;1.15;;;;;;;;;;5083032;28;20048;-77
2021/08/23 13:51:34;;;;;;;6.90;1.83;;;;;;;;;;5076196;28;20174;-77
2021/08/23 13:54:01;;;;;;;6.07;1.50;;;;;;;;;;5063555;28;20121;-79
2021/08/23 13:56:27;;;;;;;3.92;1.45;;;;;;;;;;5112811;27;20040;-79
2021/08/23 13:58:57;;;;;;;4.93;2.13;;;;;;;;;;5080805;28;20047;-81
2021/08/23 14:01:26;;;;;;;2.90;1.45;;;;;;;;;;5080665;28;20047;-78
2021/08/23 14:03:52;;;;;;;3.10;1.40;;;;;;;;;;5111606;27;20395;-81
2021/08/23 14:06:19;;;;;;;2.17;1.00;;;;;;;;;;5056194;28;20089;-80
2021/08/23 14:08:45;;;;;;;2.83;1.50;;;;;;;;;;5110020;27;20060;-81
2021/08/23 14:11:11;;;;;;;3.70;1.38;;;;;;;;;;5078573;28;20101;-81
2021/08/23 14:13:37;;;;;;;3.13;1.67;;;;;;;;;;5061822;28;20077;-81
2021/08/23 14:16:04;;;;;;;2.28;1.23;;;;;;;;;;5080181;28;20058;-81
2021/08/23 14:18:30;;;;;;;4.43;1.60;;;;;;;;;;5084201;28;20438;-83
2021/08/23 14:20:56;;;;;;;2.70;1.00;;;;;;;;;;5116366;27;20051;-81
2021/08/23 14:23:22;;;;;;;1.83;0.90;;;;;;;;;;5066103;28;20101;-78
2021/08/23 14:25:48;;;;;;;4.63;1.05;;;;;;;;;;5051470;28;20059;-79
2021/08/23 14:28:15;;;;;;;3.17;0.98;;;;;;;;;;5084796;28;20124;-80
2021/08/23 14:30:41;;;;;;;2.83;1.20;;;;;;;;;;5061427;28;20083;-81
2021/08/23 14:33:08;;;;;;;3.15;1.17;;;;;;;;;;5092988;28;20130;-80
2021/08/23 14:35:34;;;;;;;3.92;1.63;;;;;;;;;;5084307;28;20044;-80
2021/08/23 14:38:00;;;;;;;3.10;1.30;;;;;;;;;;5087586;28;20044;-80
2021/08/23 14:40:26;;;;;;;2.03;1.10;;;;;;;;;;5070102;28;20065;-80
2021/08/23 14:42:55;;;;;;;3.72;1.50;;;;;;;;;;5080815;28;20135;-78
2021/08/23 14:45:23;;;;;;;3.20;1.20;;;;;;;;;;5079959;28;20475;-81
2021/08/23 14:47:49;;;;;;;4.45;1.60;;;;;;;;;;5070074;28;20519;-80